Terminal Aerodrome Forecast
Issued by NWS Blacksburg, VA

Home | Current Version | Previous Version | Text Only | Print | Product List | Glossary On
Versions: 1 2 3 4 5 6 7 8 9 10 11 12 13 14 15 16 17
000
FTUS41 KRNK 280214 AAA
TAFROA
TAF AMD
KROA 280214Z 2802/2824 24004KT P6SM OVC100
     FM280400 VRB03KT P6SM VCSH OVC080
      TEMPO 2805/2806 5SM -SHRA OVC040
     FM280900 00000KT P6SM OVC060 WS020/22035KT
     FM281300 19004KT P6SM OVC050
     FM281700 24006KT 6SM -SHRA BKN070
     FM282000 29008KT P6SM BKN050=

USA.gov is the U.S. government's official web portal to all federal, state and local government web resources and services.